createdAt,value
2023-03-19T00:02:19.493Z,21.10
2023-03-19T00:04:47.519Z,18.13
2023-03-19T00:07:15.806Z,20.13
2023-03-19T00:09:43.529Z,20.13
2023-03-19T00:12:13.096Z,21.30
2023-03-19T00:14:40.873Z,20.07
2023-03-19T00:17:08.732Z,19.30
2023-03-19T00:19:36.402Z,17.47
2023-03-19T00:22:04.121Z,21.97
2023-03-19T00:24:32.139Z,16.40
2023-03-19T00:26:59.840Z,19.70
2023-03-19T00:29:29.096Z,16.07
2023-03-19T00:31:56.794Z,18.23
2023-03-19T00:34:24.445Z,20.67
2023-03-19T00:36:52.099Z,21.50
2023-03-19T00:39:21.662Z,20.70
2023-03-19T00:41:50.638Z,20.20
2023-03-19T00:44:19.281Z,18.83
2023-03-19T00:46:48.334Z,20.73
2023-03-19T00:49:16.193Z,24.07
2023-03-19T00:51:44.122Z,23.50
2023-03-19T00:54:12.996Z,18.03
2023-03-19T00:56:41.011Z,17.27
2023-03-19T00:59:08.757Z,19.73
2023-03-19T01:01:36.528Z,14.93
2023-03-19T01:04:06.231Z,17.77
2023-03-19T01:06:34.001Z,18.40
2023-03-19T01:09:01.653Z,13.53
2023-03-19T01:11:29.362Z,18.07
2023-03-19T01:13:57.149Z,14.97
2023-03-19T01:16:24.881Z,15.83
2023-03-19T01:18:52.811Z,13.37
2023-03-19T01:21:22.060Z,13.00
2023-03-19T01:23:51.690Z,11.17
2023-03-19T01:26:19.707Z,12.67
2023-03-19T01:28:47.454Z,10.73
2023-03-19T01:31:15.797Z,11.47
2023-03-19T01:33:43.731Z,13.57
2023-03-19T01:36:12.330Z,9.93
2023-03-19T01:38:41.543Z,8.90
2023-03-19T01:41:09.609Z,7.50
2023-03-19T01:43:37.523Z,9.90
2023-03-19T01:46:07.327Z,7.53
2023-03-19T01:48:39.440Z,7.50
2023-03-19T01:51:08.611Z,9.17
2023-03-19T01:53:37.544Z,6.10
2023-03-19T01:56:11.029Z,7.33
2023-03-19T01:58:38.948Z,6.50
2023-03-19T02:01:07.107Z,6.67
2023-03-19T02:03:35.362Z,6.07
2023-03-19T02:06:03.405Z,13.40
2023-03-19T02:08:32.052Z,5.40
2023-03-19T02:11:00.488Z,5.03
2023-03-19T02:13:29.703Z,5.20
2023-03-19T02:15:58.182Z,7.27
2023-03-19T02:18:26.410Z,6.73
2023-03-19T02:21:00.045Z,11.37
2023-03-19T02:23:34.664Z,5.23
2023-03-19T02:26:08.410Z,7.97
2023-03-19T02:28:38.788Z,6.73
2023-03-19T02:31:07.463Z,6.23
2023-03-19T02:33:35.826Z,5.83
2023-03-19T02:36:04.348Z,7.60
2023-03-19T02:38:34.302Z,5.97
2023-03-19T02:41:04.576Z,5.13
2023-03-19T02:43:34.306Z,9.17
2023-03-19T02:46:02.395Z,6.90
2023-03-19T02:48:30.115Z,6.50
2023-03-19T02:50:57.823Z,3.70
2023-03-19T02:53:25.639Z,6.67
2023-03-19T02:55:53.311Z,3.83
2023-03-19T02:58:21.274Z,6.03
2023-03-19T03:00:52.037Z,3.63
2023-03-19T03:03:19.840Z,4.63
2023-03-19T03:05:47.579Z,6.40
2023-03-19T03:08:15.769Z,5.37
2023-03-19T03:10:43.520Z,4.37
2023-03-19T03:13:11.214Z,5.23
2023-03-19T03:15:38.913Z,5.30
2023-03-19T03:18:08.047Z,6.20
2023-03-19T03:20:36.060Z,6.27
2023-03-19T03:23:03.883Z,7.07
2023-03-19T03:25:31.745Z,4.50
2023-03-19T03:27:59.906Z,4.43
2023-03-19T03:30:27.665Z,6.00
2023-03-19T03:32:55.740Z,6.87
2023-03-19T03:35:24.833Z,5.40
2023-03-19T03:37:52.904Z,5.03
2023-03-19T03:40:21.310Z,4.77
2023-03-19T03:42:49.033Z,3.33
2023-03-19T03:45:17.189Z,5.03
2023-03-19T03:47:44.883Z,6.27
2023-03-19T03:50:12.770Z,5.27
2023-03-19T03:52:42.654Z,4.73
2023-03-19T03:55:11.070Z,3.60
2023-03-19T03:57:38.815Z,4.87
2023-03-19T04:00:07.426Z,4.10
2023-03-19T04:02:35.196Z,4.50
2023-03-19T04:05:02.940Z,4.37
2023-03-19T04:07:30.622Z,3.93
2023-03-19T04:09:59.758Z,4.40
2023-03-19T04:12:27.453Z,6.57
2023-03-19T04:14:55.125Z,4.13
2023-03-19T04:17:23.672Z,5.33
2023-03-19T04:19:51.973Z,6.73
2023-03-19T04:22:19.689Z,5.37
2023-03-19T04:24:47.364Z,3.70
2023-03-19T04:27:16.432Z,5.33
2023-03-19T04:29:44.110Z,5.07
2023-03-19T04:32:11.897Z,5.97
2023-03-19T04:34:39.656Z,7.30
2023-03-19T04:37:07.361Z,8.40
2023-03-19T04:39:35.099Z,5.70
2023-03-19T04:42:03.226Z,7.67
2023-03-19T04:44:32.285Z,5.10
2023-03-19T04:46:59.945Z,6.80
2023-03-19T04:49:27.646Z,6.47
2023-03-19T04:51:56.364Z,7.33
2023-03-19T04:54:24.402Z,8.13
2023-03-19T04:56:53.071Z,6.03
2023-03-19T04:59:22.876Z,7.40
2023-03-19T05:01:52.116Z,7.80
2023-03-19T05:04:20.008Z,7.47
2023-03-19T05:06:47.718Z,6.77
2023-03-19T05:09:15.404Z,6.10
2023-03-19T05:11:43.121Z,7.33
2023-03-19T05:14:11.052Z,7.03
2023-03-19T05:16:38.816Z,9.47
2023-03-19T05:19:08.361Z,7.60
2023-03-19T05:21:36.047Z,7.07
2023-03-19T05:24:03.748Z,8.00
2023-03-19T05:26:31.468Z,8.17
2023-03-19T05:28:59.419Z,9.50
2023-03-19T05:31:27.117Z,10.33
2023-03-19T05:33:54.976Z,9.37
2023-03-19T05:36:24.137Z,9.47
2023-03-19T05:38:51.808Z,9.33
2023-03-19T05:41:19.516Z,11.93
2023-03-19T05:43:47.248Z,15.40
2023-03-19T05:46:15.029Z,13.23
2023-03-19T05:48:42.734Z,12.80
2023-03-19T05:51:11.607Z,12.30
2023-03-19T05:53:41.073Z,13.50
2023-03-19T05:56:09.071Z,16.13
2023-03-19T05:58:37.125Z,13.23
2023-03-19T06:01:05.016Z,13.60
2023-03-19T06:03:32.763Z,13.17
2023-03-19T06:06:01.240Z,15.23
2023-03-19T06:08:28.999Z,16.43
2023-03-19T06:10:58.053Z,18.80
2023-03-19T06:13:25.795Z,16.63
2023-03-19T06:15:53.590Z,17.33
2023-03-19T06:18:21.483Z,18.23
2023-03-19T06:20:49.406Z,17.23
2023-03-19T06:23:17.326Z,16.93
2023-03-19T06:25:45.015Z,20.47
2023-03-19T06:28:14.083Z,17.13
2023-03-19T06:30:41.913Z,19.43
2023-03-19T06:33:09.816Z,17.67
2023-03-19T06:35:37.678Z,17.60
2023-03-19T06:38:05.449Z,16.17
2023-03-19T06:40:33.378Z,22.23
2023-03-19T06:43:01.284Z,19.13
2023-03-19T06:45:30.983Z,16.57
2023-03-19T06:47:58.905Z,19.97
2023-03-19T06:50:27.203Z,18.20
2023-03-19T06:52:54.937Z,16.43
2023-03-19T06:55:22.675Z,20.20
2023-03-19T06:57:51.263Z,15.90
2023-03-19T07:00:20.742Z,16.83
2023-03-19T07:02:49.857Z,16.47
2023-03-19T07:05:17.694Z,15.60
2023-03-19T07:07:45.416Z,18.23
2023-03-19T07:10:13.695Z,17.73
2023-03-19T07:12:41.377Z,16.47
2023-03-19T07:15:10.027Z,18.70
2023-03-19T07:17:37.801Z,18.70
2023-03-19T07:20:08.217Z,17.53
2023-03-19T07:22:36.063Z,17.90
2023-03-19T07:25:03.762Z,16.60
2023-03-19T07:27:31.420Z,17.67
2023-03-19T07:29:59.053Z,18.87
2023-03-19T07:32:26.981Z,18.27
2023-03-19T07:34:54.722Z,21.03
2023-03-19T07:37:23.826Z,15.43
2023-03-19T07:39:52.192Z,18.53
2023-03-19T07:42:19.816Z,17.97
2023-03-19T07:44:47.494Z,18.37
2023-03-19T07:47:26.355Z,16.77
2023-03-19T07:49:56.105Z,17.30
2023-03-19T07:52:25.907Z,17.60
2023-03-19T07:54:53.785Z,16.80
2023-03-19T07:57:21.628Z,16.37
2023-03-19T07:59:49.270Z,16.00
2023-03-19T08:02:17.009Z,20.10
2023-03-19T08:04:44.997Z,16.60
2023-03-19T08:07:12.924Z,17.87
2023-03-19T08:09:42.024Z,17.27
2023-03-19T08:12:10.263Z,18.47
2023-03-19T08:14:38.008Z,17.17
2023-03-19T08:17:06.443Z,17.53
2023-03-19T08:19:34.123Z,18.00
2023-03-19T08:22:02.034Z,17.73
2023-03-19T08:24:29.693Z,21.53
2023-03-19T08:26:58.688Z,15.80
2023-03-19T08:29:27.421Z,16.83
2023-03-19T08:31:56.089Z,17.63
2023-03-19T08:34:24.087Z,17.53
2023-03-19T08:36:51.940Z,18.33
2023-03-19T08:39:19.674Z,15.80
2023-03-19T08:41:47.309Z,20.20
2023-03-19T08:44:16.390Z,17.70
2023-03-19T08:46:44.180Z,16.63
2023-03-19T08:49:11.851Z,18.17
2023-03-19T08:51:40.511Z,15.83
2023-03-19T08:54:09.093Z,17.73
2023-03-19T08:56:36.738Z,16.30
2023-03-19T08:59:04.386Z,17.63
2023-03-19T09:01:33.478Z,18.23
2023-03-19T09:04:01.177Z,17.73
2023-03-19T09:06:28.939Z,16.70
2023-03-19T09:08:56.608Z,18.20
2023-03-19T09:11:24.385Z,15.60
2023-03-19T09:13:52.213Z,17.10
2023-03-19T09:16:20.003Z,17.70
2023-03-19T09:18:49.201Z,17.77
2023-03-19T09:21:16.921Z,17.67
2023-03-19T09:23:44.615Z,18.93
2023-03-19T09:26:12.364Z,15.53
2023-03-19T09:28:40.107Z,15.27
2023-03-19T09:31:11.515Z,16.63
2023-03-19T09:33:39.248Z,19.13
2023-03-19T09:36:09.338Z,16.93
2023-03-19T09:38:37.080Z,17.23
2023-03-19T09:41:09.743Z,16.40
2023-03-19T09:43:46.463Z,16.10
2023-03-19T09:46:17.692Z,15.40
2023-03-19T09:48:50.504Z,13.50
2023-03-19T09:51:22.995Z,14.47
2023-03-19T09:53:54.147Z,14.10
2023-03-19T09:56:21.830Z,17.43
2023-03-19T09:58:49.514Z,15.10
2023-03-19T10:01:25.544Z,14.60
2023-03-19T10:04:17.715Z,18.00
2023-03-19T10:06:47.036Z,16.63
2023-03-19T10:09:31.723Z,15.87
2023-03-19T10:12:07.255Z,12.23
2023-03-19T10:14:52.919Z,12.43
2023-03-19T10:17:24.169Z,17.23
2023-03-19T10:19:54.828Z,15.67
2023-03-19T10:22:27.111Z,12.27
2023-03-19T10:24:55.348Z,12.33
2023-03-19T10:27:26.319Z,13.20
2023-03-19T10:29:54.037Z,11.97
2023-03-19T10:32:27.999Z,14.70
2023-03-19T10:34:55.941Z,12.20
2023-03-19T10:37:26.637Z,14.13
2023-03-19T10:39:57.631Z,13.93
2023-03-19T10:42:39.904Z,14.00
2023-03-19T10:45:17.235Z,12.03
2023-03-19T10:47:45.219Z,12.30
2023-03-19T10:50:18.394Z,10.47
2023-03-19T10:52:51.516Z,11.03
2023-03-19T10:55:23.709Z,11.20
2023-03-19T10:57:58.333Z,10.33
2023-03-19T11:00:27.202Z,11.60
2023-03-19T11:02:56.446Z,11.23
2023-03-19T11:05:26.257Z,11.90
2023-03-19T11:08:00.107Z,9.80
2023-03-19T11:10:30.053Z,9.77
2023-03-19T11:12:59.084Z,10.83
2023-03-19T11:15:30.061Z,12.37
2023-03-19T11:17:59.544Z,11.60
2023-03-19T11:20:31.996Z,10.07
2023-03-19T11:23:03.119Z,9.50
2023-03-19T11:25:33.165Z,10.83
2023-03-19T11:28:02.319Z,10.57
2023-03-19T11:30:35.237Z,10.17
2023-03-19T11:33:42.564Z,12.90
2023-03-19T11:36:14.152Z,11.07
2023-03-19T11:38:54.635Z,10.07
2023-03-19T11:41:30.413Z,13.87
2023-03-19T11:44:00.763Z,10.67
2023-03-19T11:46:36.510Z,9.87
2023-03-19T11:49:42.973Z,10.03
2023-03-19T11:52:17.888Z,10.27
2023-03-19T11:54:54.297Z,10.50
2023-03-19T11:57:31.025Z,9.87
2023-03-19T12:00:08.047Z,9.93
2023-03-19T12:03:07.723Z,10.63
2023-03-19T12:05:41.635Z,9.77
2023-03-19T12:08:19.404Z,8.87
2023-03-19T12:10:58.969Z,9.80
2023-03-19T12:13:37.759Z,11.20
2023-03-19T12:16:14.629Z,8.80
2023-03-19T12:18:53.032Z,7.63
2023-03-19T12:21:25.679Z,8.47
2023-03-19T12:24:04.735Z,9.53
2023-03-19T12:26:43.939Z,7.37
2023-03-19T12:29:18.761Z,7.20
2023-03-19T12:31:56.982Z,9.83
2023-03-19T12:34:29.745Z,7.70
2023-03-19T12:37:07.358Z,8.03
2023-03-19T12:39:38.128Z,7.87
2023-03-19T12:42:09.320Z,7.47
2023-03-19T12:44:40.286Z,8.93
2023-03-19T12:47:09.780Z,8.70
2023-03-19T12:49:39.359Z,7.23
2023-03-19T12:52:13.454Z,9.07
2023-03-19T12:54:43.257Z,7.60
2023-03-19T12:57:17.682Z,9.40
2023-03-19T12:59:49.699Z,9.07
2023-03-19T13:02:20.214Z,10.20
2023-03-19T13:04:53.516Z,9.30
2023-03-19T13:07:24.784Z,8.13
2023-03-19T13:09:57.550Z,7.00
2023-03-19T13:12:28.679Z,9.13
2023-03-19T13:14:59.867Z,8.20
2023-03-19T13:17:31.742Z,8.20
2023-03-19T13:20:00.799Z,7.80
2023-03-19T13:22:31.622Z,8.33
2023-03-19T13:25:00.111Z,7.47
2023-03-19T13:27:31.977Z,8.10
2023-03-19T13:30:13.337Z,8.30
2023-03-19T13:32:42.425Z,7.27
2023-03-19T13:35:26.371Z,6.23
2023-03-19T13:37:57.932Z,8.20
2023-03-19T13:40:56.573Z,8.43
2023-03-19T13:43:42.836Z,6.80
2023-03-19T13:47:02.501Z,6.30
2023-03-19T13:49:33.655Z,6.90
2023-03-19T13:52:04.938Z,4.30
2023-03-19T13:54:36.017Z,5.73
2023-03-19T13:57:19.431Z,7.43
2023-03-19T13:59:50.282Z,4.37
2023-03-19T14:02:49.712Z,6.83
2023-03-19T14:05:20.649Z,7.10
2023-03-19T14:07:53.145Z,6.37
2023-03-19T14:10:27.231Z,7.50
2023-03-19T14:13:03.755Z,8.83
2023-03-19T14:15:31.980Z,5.20
2023-03-19T14:18:02.885Z,5.33
2023-03-19T14:20:40.605Z,6.47
2023-03-19T14:23:23.308Z,5.93
2023-03-19T14:26:06.858Z,4.63
2023-03-19T14:28:38.730Z,6.13
2023-03-19T14:31:07.143Z,7.80
2023-03-19T14:33:44.698Z,8.13
2023-03-19T14:36:16.380Z,4.63
2023-03-19T14:38:51.169Z,5.33
2023-03-19T14:41:22.207Z,5.33
2023-03-19T14:44:15.601Z,6.40
2023-03-19T14:46:52.619Z,6.23
2023-03-19T14:49:44.943Z,5.37
2023-03-19T14:52:13.484Z,7.57
2023-03-19T14:54:45.113Z,9.13
2023-03-19T14:57:18.023Z,8.73
2023-03-19T14:59:45.735Z,9.03
2023-03-19T15:02:23.080Z,12.60
2023-03-19T15:04:52.490Z,12.80
2023-03-19T15:07:21.784Z,13.53
2023-03-19T15:09:53.786Z,17.43
2023-03-19T15:12:34.263Z,18.17
2023-03-19T15:15:26.062Z,23.60
2023-03-19T15:18:03.796Z,20.33
2023-03-19T15:20:37.183Z,22.07
2023-03-19T15:23:13.528Z,21.03
2023-03-19T15:25:52.718Z,21.90
2023-03-19T15:28:20.873Z,25.67
2023-03-19T15:31:05.719Z,20.80
2023-03-19T15:33:44.053Z,22.00
2023-03-19T15:36:17.382Z,23.37
2023-03-19T15:38:48.769Z,24.20
2023-03-19T15:41:17.187Z,23.83
2023-03-19T15:43:45.320Z,20.90
2023-03-19T15:46:15.498Z,24.83
2023-03-19T15:48:45.576Z,20.73
2023-03-19T15:51:15.923Z,22.40
2023-03-19T15:53:44.805Z,25.87
2023-03-19T15:56:14.262Z,23.47
2023-03-19T15:58:43.962Z,24.07
2023-03-19T16:01:13.094Z,23.80
2023-03-19T16:03:42.877Z,24.77
2023-03-19T16:06:18.693Z,23.97
2023-03-19T16:08:53.142Z,28.17
2023-03-19T16:11:29.660Z,27.57
2023-03-19T16:13:58.955Z,25.63
2023-03-19T16:16:29.812Z,30.30
2023-03-19T16:18:58.816Z,32.77
2023-03-19T16:21:36.191Z,28.90
2023-03-19T16:24:05.319Z,34.63
2023-03-19T16:26:38.853Z,33.17
2023-03-19T16:29:11.203Z,36.80
2023-03-19T16:31:44.280Z,31.47
2023-03-19T16:34:25.355Z,35.80
2023-03-19T16:36:54.418Z,33.17
2023-03-19T16:39:28.072Z,31.53
2023-03-19T16:42:16.448Z,32.37
2023-03-19T16:44:45.247Z,32.87
2023-03-19T16:47:14.444Z,32.90
2023-03-19T16:49:42.260Z,38.57
2023-03-19T16:52:15.832Z,31.73
2023-03-19T16:54:43.702Z,33.40
2023-03-19T16:57:11.880Z,35.47
2023-03-19T16:59:39.641Z,33.40
2023-03-19T17:02:12.102Z,30.87
2023-03-19T17:04:39.885Z,35.70
2023-03-19T17:07:08.099Z,34.87
2023-03-19T17:09:37.564Z,36.20
2023-03-19T17:12:06.630Z,36.43
2023-03-19T17:14:34.339Z,33.63
2023-03-19T17:17:02.643Z,32.57
2023-03-19T17:19:34.465Z,32.53
2023-03-19T17:22:02.653Z,34.60
2023-03-19T17:24:31.901Z,31.87
2023-03-19T17:27:02.952Z,37.43
2023-03-19T17:29:31.329Z,31.03
2023-03-19T17:32:01.724Z,33.93
2023-03-19T17:34:31.838Z,35.20
2023-03-19T17:37:01.303Z,31.13
2023-03-19T17:39:31.411Z,33.50
2023-03-19T17:42:00.956Z,33.60
2023-03-19T17:44:29.388Z,35.63
2023-03-19T17:46:57.270Z,29.50
2023-03-19T17:49:28.772Z,33.77
2023-03-19T17:51:56.885Z,35.93
2023-03-19T17:54:26.738Z,32.80
2023-03-19T17:56:54.536Z,40.57
2023-03-19T17:59:23.728Z,41.70
2023-03-19T18:01:52.137Z,39.80
2023-03-19T18:04:21.288Z,40.20
2023-03-19T18:06:51.946Z,42.07
2023-03-19T18:09:21.387Z,39.07
2023-03-19T18:11:49.041Z,39.40
2023-03-19T18:14:16.757Z,44.23
2023-03-19T18:16:46.465Z,44.73
2023-03-19T18:19:21.155Z,45.47
2023-03-19T18:21:48.849Z,42.33
2023-03-19T18:24:16.543Z,44.50
2023-03-19T18:26:44.266Z,47.57
2023-03-19T18:29:11.924Z,44.73
2023-03-19T18:31:41.332Z,49.23
2023-03-19T18:34:13.710Z,46.77
2023-03-19T18:36:41.444Z,46.60
2023-03-19T18:39:12.256Z,44.57
2023-03-19T18:41:39.976Z,45.23
2023-03-19T18:44:08.415Z,46.83
2023-03-19T18:46:37.821Z,44.20
2023-03-19T18:49:07.845Z,48.23
2023-03-19T18:51:36.871Z,50.33
2023-03-19T18:54:04.921Z,49.73
2023-03-19T18:56:33.488Z,49.37
2023-03-19T18:59:02.164Z,48.10
2023-03-19T19:01:29.851Z,51.77
2023-03-19T19:03:57.704Z,47.93
2023-03-19T19:06:45.909Z,51.40
2023-03-19T19:09:15.792Z,48.83
2023-03-19T19:11:44.809Z,52.47
2023-03-19T19:14:17.024Z,49.73
2023-03-19T19:16:44.736Z,52.60
2023-03-19T19:19:16.612Z,46.73
2023-03-19T19:21:44.255Z,46.93
2023-03-19T19:24:14.796Z,48.87
2023-03-19T19:26:45.234Z,50.80
2023-03-19T19:29:16.992Z,51.57
2023-03-19T19:31:44.699Z,53.13
2023-03-19T19:34:14.139Z,48.43
2023-03-19T19:36:41.893Z,50.87
2023-03-19T19:39:09.943Z,45.80
2023-03-19T19:41:38.055Z,45.83
2023-03-19T19:44:07.511Z,50.53
2023-03-19T19:46:35.381Z,53.70
2023-03-19T19:49:03.148Z,48.33
2023-03-19T19:51:31.070Z,51.73
2023-03-19T19:53:58.700Z,53.63
2023-03-19T19:56:26.954Z,56.47
2023-03-19T19:58:55.445Z,49.90
2023-03-19T20:01:26.210Z,55.07
2023-03-19T20:03:54.331Z,52.73
2023-03-19T20:06:22.061Z,58.20
2023-03-19T20:08:50.290Z,60.83
2023-03-19T20:11:20.223Z,57.33
2023-03-19T20:13:51.497Z,50.40
2023-03-19T20:16:20.059Z,63.97
2023-03-19T20:18:51.069Z,50.20
2023-03-19T20:21:18.731Z,53.33
2023-03-19T20:23:46.727Z,55.80
2023-03-19T20:26:15.383Z,61.90
2023-03-19T20:28:43.535Z,56.97
2023-03-19T20:31:17.849Z,55.50
2023-03-19T20:33:45.535Z,48.63
2023-03-19T20:36:17.065Z,52.73
2023-03-19T20:38:44.759Z,50.03
2023-03-19T20:41:19.256Z,49.67
2023-03-19T20:43:47.570Z,49.03
2023-03-19T20:46:15.298Z,54.30
2023-03-19T20:48:42.988Z,50.37
2023-03-19T20:51:12.017Z,54.43
2023-03-19T20:53:41.036Z,49.60
2023-03-19T20:56:14.429Z,55.10
2023-03-19T20:58:42.148Z,55.40
2023-03-19T21:01:10.610Z,51.47
2023-03-19T21:03:39.112Z,51.53
2023-03-19T21:06:11.209Z,51.00
2023-03-19T21:08:42.940Z,56.10
2023-03-19T21:11:14.357Z,54.90
2023-03-19T21:13:42.427Z,52.20
2023-03-19T21:16:14.315Z,51.57
2023-03-19T21:18:42.019Z,48.37
2023-03-19T21:21:12.053Z,44.47
2023-03-19T21:23:40.056Z,45.43
2023-03-19T21:26:12.978Z,50.47
2023-03-19T21:28:41.420Z,44.95
2023-03-19T21:31:13.758Z,44.43
2023-03-19T21:33:43.323Z,42.43
2023-03-19T21:36:11.312Z,39.30
2023-03-19T21:38:39.072Z,39.53
2023-03-19T21:41:10.560Z,39.87
2023-03-19T21:43:41.860Z,33.07
2023-03-19T21:46:23.220Z,35.63
2023-03-19T21:48:52.225Z,34.77
2023-03-19T21:51:20.412Z,36.43
2023-03-19T21:53:48.308Z,36.63
2023-03-19T21:56:21.229Z,39.30
2023-03-19T21:58:49.301Z,43.10
2023-03-19T22:01:19.039Z,45.47
2023-03-19T22:03:46.789Z,47.87
2023-03-19T22:06:14.623Z,37.20
2023-03-19T22:08:44.481Z,53.57
2023-03-19T22:11:16.439Z,39.47
2023-03-19T22:13:45.797Z,39.57
2023-03-19T22:16:18.857Z,37.63
2023-03-19T22:18:46.785Z,42.23
2023-03-19T22:21:16.302Z,44.23
2023-03-19T22:23:44.020Z,48.30
2023-03-19T22:26:28.498Z,45.97
2023-03-19T22:28:58.955Z,46.07
2023-03-19T22:31:26.877Z,49.40
2023-03-19T22:33:54.800Z,47.30
2023-03-19T22:36:22.523Z,45.93
2023-03-19T22:38:50.293Z,53.63
2023-03-19T22:41:27.587Z,52.63
2023-03-19T22:43:56.869Z,54.80
2023-03-19T22:46:25.223Z,52.93
2023-03-19T22:48:52.988Z,62.67
2023-03-19T22:51:22.587Z,59.30
2023-03-19T22:53:51.303Z,56.90
2023-03-19T22:56:22.613Z,50.63
2023-03-19T22:58:50.680Z,53.53
2023-03-19T23:01:30.973Z,52.50
2023-03-19T23:03:58.867Z,55.20
2023-03-19T23:06:30.702Z,46.23
2023-03-19T23:08:58.782Z,51.77
2023-03-19T23:11:27.050Z,49.47
2023-03-19T23:13:56.575Z,49.97
2023-03-19T23:16:28.134Z,51.17
2023-03-19T23:18:58.483Z,56.27
2023-03-19T23:21:26.163Z,50.67
2023-03-19T23:23:54.574Z,49.37
2023-03-19T23:26:27.412Z,49.40
2023-03-19T23:28:56.468Z,53.57
2023-03-19T23:31:24.292Z,49.67
2023-03-19T23:33:53.346Z,49.43
2023-03-19T23:36:21.800Z,48.20
2023-03-19T23:38:49.433Z,49.30
2023-03-19T23:41:22.089Z,41.57
2023-03-19T23:43:49.819Z,47.90
2023-03-19T23:46:17.507Z,43.97
2023-03-19T23:48:45.464Z,52.17
2023-03-19T23:51:15.838Z,47.00
2023-03-19T23:53:44.021Z,41.20
2023-03-19T23:56:18.580Z,44.03
2023-03-19T23:58:48.067Z,46.97
